createdAt,value
2022-12-24T00:00:04.271Z,652.09
2022-12-24T00:00:14.338Z,652.40
2022-12-24T00:00:24.398Z,652.19
2022-12-24T00:00:34.298Z,652.46
2022-12-24T00:00:44.389Z,651.66
2022-12-24T00:00:54.374Z,651.98
2022-12-24T00:01:04.276Z,653.53
2022-12-24T00:01:14.277Z,652.31
2022-12-24T00:01:24.270Z,652.06
2022-12-24T00:01:34.265Z,652.99
2022-12-24T00:01:44.277Z,652.02
2022-12-24T00:01:54.262Z,651.89
2022-12-24T00:02:04.387Z,651.17
2022-12-24T00:02:14.384Z,652.26
2022-12-24T00:02:24.409Z,651.28
2022-12-24T00:02:34.446Z,651.29
2022-12-24T00:02:44.486Z,653.98
2022-12-24T00:02:54.363Z,652.79
2022-12-24T00:03:04.385Z,652.11
2022-12-24T00:03:14.523Z,651.56
2022-12-24T00:03:24.389Z,651.61
2022-12-24T00:03:34.474Z,652.05
2022-12-24T00:03:44.404Z,651.77
2022-12-24T00:03:54.277Z,651.52
2022-12-24T00:04:04.278Z,652.27
2022-12-24T00:04:14.281Z,651.36
2022-12-24T00:04:24.281Z,651.64
2022-12-24T00:04:34.274Z,652.61
2022-12-24T00:04:44.320Z,651.73
2022-12-24T00:05:00.665Z,651.94
2022-12-24T00:05:05.289Z,652.27
2022-12-24T00:05:14.278Z,652.33
2022-12-24T00:05:24.304Z,651.59
2022-12-24T00:05:34.293Z,651.82
2022-12-24T00:05:44.284Z,651.97
2022-12-24T00:05:54.285Z,652.20
2022-12-24T00:06:04.284Z,652.52
2022-12-24T00:06:14.286Z,652.36
2022-12-24T00:06:24.283Z,651.59
2022-12-24T00:06:34.332Z,652.53
2022-12-24T00:06:44.298Z,651.52
2022-12-24T00:06:54.287Z,652.23
2022-12-24T00:07:04.286Z,651.52
2022-12-24T00:07:14.301Z,652.01
2022-12-24T00:07:24.287Z,652.50
2022-12-24T00:07:34.284Z,653.34
2022-12-24T00:07:44.290Z,652.13
2022-12-24T00:07:54.302Z,653.09
2022-12-24T00:08:04.293Z,652.78
2022-12-24T00:08:14.328Z,652.06
2022-12-24T00:08:24.295Z,651.90
2022-12-24T00:08:34.303Z,652.28
2022-12-24T00:08:44.297Z,652.37
2022-12-24T00:08:54.348Z,652.24
2022-12-24T00:09:04.305Z,651.70
2022-12-24T00:09:14.295Z,651.55
2022-12-24T00:09:24.305Z,651.67
2022-12-24T00:09:34.319Z,650.47
2022-12-24T00:09:44.350Z,651.50
2022-12-24T00:09:54.323Z,652.54
2022-12-24T00:10:04.299Z,651.88
2022-12-24T00:10:14.311Z,651.76
2022-12-24T00:10:24.303Z,651.61
2022-12-24T00:10:34.307Z,652.13
2022-12-24T00:10:44.312Z,651.13
2022-12-24T00:10:54.320Z,651.48
2022-12-24T00:11:04.311Z,651.38
2022-12-24T00:11:14.319Z,652.21
2022-12-24T00:11:24.319Z,651.65
2022-12-24T00:11:34.323Z,651.36
2022-12-24T00:11:44.314Z,651.10
2022-12-24T00:11:54.305Z,651.30
2022-12-24T00:12:04.319Z,651.00
2022-12-24T00:12:14.309Z,651.41
2022-12-24T00:12:24.311Z,651.44
2022-12-24T00:12:34.316Z,651.12
2022-12-24T00:12:44.318Z,651.64
2022-12-24T00:12:54.310Z,651.72
2022-12-24T00:13:04.342Z,651.39
2022-12-24T00:13:14.328Z,651.29
2022-12-24T00:13:24.318Z,651.13
2022-12-24T00:13:34.328Z,651.10
2022-12-24T00:13:44.349Z,650.68
2022-12-24T00:13:54.317Z,651.21
2022-12-24T00:14:04.342Z,651.90
2022-12-24T00:14:14.319Z,651.10
2022-12-24T00:14:24.313Z,651.08
2022-12-24T00:14:34.335Z,651.96
2022-12-24T00:14:44.316Z,651.70
2022-12-24T00:14:54.322Z,651.98
2022-12-24T00:15:04.344Z,651.91
2022-12-24T00:15:14.321Z,650.86
2022-12-24T00:15:24.325Z,651.22
2022-12-24T00:15:34.335Z,651.07
2022-12-24T00:15:44.329Z,650.70
2022-12-24T00:15:54.328Z,651.10
2022-12-24T00:16:04.382Z,650.60
2022-12-24T00:16:14.399Z,651.20
2022-12-24T00:16:24.364Z,650.71
2022-12-24T00:16:34.362Z,651.70
2022-12-24T00:16:44.380Z,651.38
2022-12-24T00:16:54.380Z,651.64
2022-12-24T00:17:04.427Z,651.87
2022-12-24T00:17:14.419Z,652.41
2022-12-24T00:17:24.331Z,651.19
2022-12-24T00:17:34.337Z,650.92
2022-12-24T00:17:44.332Z,650.84
2022-12-24T00:17:54.406Z,651.38
2022-12-24T00:18:04.339Z,650.85
2022-12-24T00:18:14.358Z,650.49
2022-12-24T00:18:24.341Z,650.96
2022-12-24T00:18:37.448Z,651.04
2022-12-24T00:18:46.611Z,650.97
2022-12-24T00:18:54.339Z,650.82
2022-12-24T00:19:04.346Z,650.86
2022-12-24T00:19:14.340Z,650.93
2022-12-24T00:19:24.344Z,650.81
2022-12-24T00:19:34.336Z,650.58
2022-12-24T00:19:44.342Z,650.51
2022-12-24T00:19:54.352Z,650.47
2022-12-24T00:20:04.352Z,649.98
2022-12-24T00:20:14.352Z,650.07
2022-12-24T00:20:24.360Z,650.97
2022-12-24T00:20:34.337Z,650.31
2022-12-24T00:20:44.367Z,650.30
2022-12-24T00:20:54.373Z,650.10
2022-12-24T00:21:04.353Z,649.97
2022-12-24T00:21:14.363Z,650.52
2022-12-24T00:21:24.378Z,651.18
2022-12-24T00:21:34.348Z,651.58
2022-12-24T00:21:44.345Z,650.71
2022-12-24T00:21:54.377Z,650.60
2022-12-24T00:22:04.347Z,650.14
2022-12-24T00:22:14.349Z,650.18
2022-12-24T00:22:24.344Z,650.21
2022-12-24T00:22:34.364Z,649.68
2022-12-24T00:22:44.360Z,650.48
2022-12-24T00:22:54.357Z,650.63
2022-12-24T00:23:04.395Z,650.63
2022-12-24T00:23:14.351Z,651.04
2022-12-24T00:23:24.356Z,650.17
2022-12-24T00:23:34.358Z,650.30
2022-12-24T00:23:44.404Z,651.15
2022-12-24T00:23:54.358Z,650.97
2022-12-24T00:24:04.356Z,651.12
2022-12-24T00:24:14.362Z,653.11
2022-12-24T00:24:24.358Z,653.36
2022-12-24T00:24:34.394Z,652.08
2022-12-24T00:24:44.365Z,652.34
2022-12-24T00:24:54.370Z,650.70
2022-12-24T00:25:04.365Z,651.03
2022-12-24T00:25:14.368Z,652.29
2022-12-24T00:25:24.376Z,652.29
2022-12-24T00:25:34.402Z,651.84
2022-12-24T00:25:44.385Z,652.58
2022-12-24T00:25:54.369Z,651.13
2022-12-24T00:26:04.368Z,651.28
2022-12-24T00:26:14.410Z,651.67
2022-12-24T00:26:24.370Z,649.97
2022-12-24T00:26:34.376Z,649.57
2022-12-24T00:26:44.376Z,649.69
2022-12-24T00:26:54.369Z,649.80
2022-12-24T00:27:04.377Z,650.22
2022-12-24T00:27:14.371Z,650.18
2022-12-24T00:27:24.375Z,649.86
2022-12-24T00:27:34.376Z,649.28
2022-12-24T00:27:44.372Z,649.71
2022-12-24T00:27:54.410Z,649.44
2022-12-24T00:28:04.383Z,649.58
2022-12-24T00:28:14.390Z,649.39
2022-12-24T00:28:24.394Z,649.41
2022-12-24T00:28:34.380Z,649.78
2022-12-24T00:28:44.380Z,650.20
2022-12-24T00:28:54.430Z,649.83
2022-12-24T00:29:04.402Z,650.10
2022-12-24T00:29:14.388Z,650.88
2022-12-24T00:29:24.387Z,650.97
2022-12-24T00:29:34.384Z,650.61
2022-12-24T00:29:44.385Z,650.71
2022-12-24T00:29:54.396Z,651.24
2022-12-24T00:30:04.401Z,650.80
2022-12-24T00:30:14.391Z,651.31
2022-12-24T00:30:24.396Z,651.73
2022-12-24T00:30:34.445Z,651.33
2022-12-24T00:30:44.477Z,650.62
2022-12-24T00:30:54.448Z,650.94
2022-12-24T00:31:04.444Z,650.87
2022-12-24T00:31:14.471Z,650.94
2022-12-24T00:31:24.417Z,651.01
2022-12-24T00:31:34.491Z,650.51
2022-12-24T00:31:44.407Z,650.61
2022-12-24T00:31:54.412Z,650.43
2022-12-24T00:32:04.394Z,650.44
2022-12-24T00:32:14.400Z,650.31
2022-12-24T00:32:24.402Z,650.55
2022-12-24T00:32:34.400Z,650.59
2022-12-24T00:32:44.417Z,650.53
2022-12-24T00:32:54.424Z,650.91
2022-12-24T00:33:04.401Z,650.49
2022-12-24T00:33:18.176Z,650.75
2022-12-24T00:33:25.397Z,650.47
2022-12-24T00:33:34.412Z,650.29
2022-12-24T00:33:44.407Z,650.50
2022-12-24T00:33:54.453Z,650.00
2022-12-24T00:34:04.410Z,650.32
2022-12-24T00:34:14.402Z,650.18
2022-12-24T00:34:24.419Z,650.10
2022-12-24T00:34:34.405Z,649.59
2022-12-24T00:34:44.403Z,650.15
2022-12-24T00:34:54.419Z,650.15
2022-12-24T00:35:04.425Z,650.87
2022-12-24T00:35:14.413Z,651.60
2022-12-24T00:35:24.419Z,650.28
2022-12-24T00:35:34.414Z,649.78
2022-12-24T00:35:44.425Z,651.34
2022-12-24T00:35:54.429Z,650.82
2022-12-24T00:36:04.426Z,650.51
2022-12-24T00:36:14.415Z,650.44
2022-12-24T00:36:24.449Z,650.25
2022-12-24T00:36:34.410Z,650.27
2022-12-24T00:36:44.417Z,649.98
2022-12-24T00:36:54.438Z,652.16
2022-12-24T00:37:04.421Z,650.62
2022-12-24T00:37:14.436Z,651.28
2022-12-24T00:37:24.414Z,652.96
2022-12-24T00:37:34.417Z,650.25
2022-12-24T00:37:44.423Z,649.26
2022-12-24T00:37:54.450Z,650.74
2022-12-24T00:38:04.431Z,648.87
2022-12-24T00:38:14.438Z,657.37
2022-12-24T00:38:24.422Z,651.61
2022-12-24T00:38:34.426Z,650.03
2022-12-24T00:38:44.436Z,650.18
2022-12-24T00:38:54.429Z,649.09
2022-12-24T00:39:04.424Z,650.11
2022-12-24T00:39:14.446Z,649.38
2022-12-24T00:39:24.424Z,652.32
2022-12-24T00:39:34.422Z,650.85
2022-12-24T00:39:44.451Z,650.00
2022-12-24T00:39:54.449Z,650.50
2022-12-24T00:40:04.434Z,649.61
2022-12-24T00:40:14.426Z,649.75
2022-12-24T00:40:24.430Z,649.97
2022-12-24T00:40:34.436Z,650.00
2022-12-24T00:40:44.452Z,649.55
2022-12-24T00:40:54.431Z,651.56
2022-12-24T00:41:04.449Z,649.19
2022-12-24T00:41:14.433Z,650.96
2022-12-24T00:41:25.368Z,649.70
2022-12-24T00:41:34.439Z,652.53
2022-12-24T00:41:44.438Z,650.66
2022-12-24T00:41:54.440Z,650.68
2022-12-24T00:42:04.434Z,650.22
2022-12-24T00:42:14.523Z,650.39
2022-12-24T00:42:24.447Z,649.84
2022-12-24T00:42:34.438Z,649.98
2022-12-24T00:42:44.473Z,649.42
2022-12-24T00:42:54.438Z,649.20
2022-12-24T00:43:04.449Z,649.61
2022-12-24T00:43:14.444Z,651.20
2022-12-24T00:43:24.455Z,650.25
2022-12-24T00:43:34.442Z,650.01
2022-12-24T00:43:44.446Z,649.42
2022-12-24T00:43:54.443Z,650.45
2022-12-24T00:44:04.442Z,650.71
2022-12-24T00:44:14.441Z,649.71
2022-12-24T00:44:24.450Z,649.08
2022-12-24T00:44:34.473Z,649.01
2022-12-24T00:44:44.450Z,649.84
2022-12-24T00:44:54.472Z,649.65
2022-12-24T00:45:04.448Z,650.12
2022-12-24T00:45:14.482Z,648.72
2022-12-24T00:45:24.451Z,650.86
2022-12-24T00:45:34.451Z,649.00
2022-12-24T00:45:44.468Z,648.70
2022-12-24T00:45:54.508Z,649.06
2022-12-24T00:46:04.498Z,649.38
2022-12-24T00:46:14.469Z,648.77
2022-12-24T00:46:24.510Z,649.65
2022-12-24T00:46:34.565Z,649.42
2022-12-24T00:46:44.590Z,648.68
2022-12-24T00:46:54.467Z,649.20
2022-12-24T00:47:10.073Z,649.39
2022-12-24T00:47:15.462Z,648.84
2022-12-24T00:47:24.460Z,649.60
2022-12-24T00:47:34.484Z,648.76
2022-12-24T00:47:44.492Z,648.40
2022-12-24T00:47:54.463Z,648.81
2022-12-24T00:48:04.464Z,649.06
2022-12-24T00:48:14.479Z,648.54
2022-12-24T00:48:24.460Z,650.31
2022-12-24T00:48:34.462Z,649.05
2022-12-24T00:48:44.481Z,648.81
2022-12-24T00:48:54.472Z,648.70
2022-12-24T00:49:04.466Z,648.55
2022-12-24T00:49:14.492Z,648.64
2022-12-24T00:49:24.490Z,650.21
2022-12-24T00:49:34.524Z,649.54
2022-12-24T00:49:44.476Z,648.84
2022-12-24T00:49:54.473Z,648.32
2022-12-24T00:50:04.485Z,648.93
2022-12-24T00:50:14.467Z,649.03
2022-12-24T00:50:24.475Z,649.04
2022-12-24T00:50:34.487Z,648.76
2022-12-24T00:50:44.492Z,648.56
2022-12-24T00:50:54.646Z,649.06
2022-12-24T00:51:04.506Z,648.97
2022-12-24T00:51:14.516Z,649.69
2022-12-24T00:51:24.553Z,650.18
2022-12-24T00:51:34.586Z,649.49
2022-12-24T00:51:44.465Z,649.22
2022-12-24T00:51:54.495Z,648.54
2022-12-24T00:52:04.504Z,648.29
2022-12-24T00:52:14.474Z,648.47
2022-12-24T00:52:24.497Z,648.66
2022-12-24T00:52:34.478Z,648.63
2022-12-24T00:52:44.472Z,648.23
2022-12-24T00:52:54.472Z,648.74
2022-12-24T00:53:04.499Z,648.81
2022-12-24T00:53:14.473Z,649.27
2022-12-24T00:53:24.475Z,648.25
2022-12-24T00:53:34.512Z,648.38
2022-12-24T00:53:44.474Z,648.06
2022-12-24T00:53:54.481Z,648.48
2022-12-24T00:54:04.490Z,647.40
2022-12-24T00:54:14.486Z,649.23
2022-12-24T00:54:24.483Z,648.77
2022-12-24T00:54:34.500Z,649.03
2022-12-24T00:54:44.497Z,649.55
2022-12-24T00:54:54.940Z,648.51
2022-12-24T00:55:04.529Z,648.22
2022-12-24T00:55:14.498Z,648.44
2022-12-24T00:55:24.485Z,647.87
2022-12-24T00:55:34.488Z,648.09
2022-12-24T00:55:44.499Z,648.14
2022-12-24T00:55:54.489Z,648.27
2022-12-24T00:56:04.507Z,648.31
2022-12-24T00:56:14.488Z,648.26
2022-12-24T00:56:24.488Z,647.99
2022-12-24T00:56:34.499Z,647.89
2022-12-24T00:56:44.503Z,648.30
2022-12-24T00:56:54.492Z,648.59
2022-12-24T00:57:04.498Z,648.52
2022-12-24T00:57:14.490Z,648.63
2022-12-24T00:57:24.488Z,648.67
2022-12-24T00:57:34.508Z,648.38
2022-12-24T00:57:44.500Z,647.77
2022-12-24T00:57:54.494Z,648.60
2022-12-24T00:58:04.508Z,648.72
2022-12-24T00:58:14.501Z,648.55
2022-12-24T00:58:24.495Z,648.41
2022-12-24T00:58:34.501Z,648.52
2022-12-24T00:58:44.507Z,648.84
2022-12-24T00:58:54.499Z,648.91
2022-12-24T00:59:04.516Z,648.70
2022-12-24T00:59:14.509Z,648.84
2022-12-24T00:59:24.504Z,648.80
2022-12-24T00:59:34.528Z,648.68
2022-12-24T00:59:44.506Z,648.15
2022-12-24T00:59:54.515Z,648.35
2022-12-24T01:00:04.533Z,648.98
2022-12-24T01:00:14.518Z,648.54
2022-12-24T01:00:24.509Z,649.00
2022-12-24T01:00:34.526Z,648.77
2022-12-24T01:00:44.510Z,648.75
2022-12-24T01:00:54.518Z,648.79
2022-12-24T01:01:04.595Z,648.45
2022-12-24T01:01:14.655Z,647.76
2022-12-24T01:01:24.765Z,648.72
2022-12-24T01:01:34.603Z,648.90
2022-12-24T01:01:44.655Z,648.23
2022-12-24T01:01:54.594Z,648.30
2022-12-24T01:02:04.699Z,649.55
2022-12-24T01:02:14.760Z,650.54
2022-12-24T01:02:24.751Z,648.63
2022-12-24T01:02:34.734Z,648.86
2022-12-24T01:02:44.919Z,648.46
2022-12-24T01:02:54.721Z,648.50
2022-12-24T01:03:04.583Z,648.15
2022-12-24T01:03:14.567Z,648.42
2022-12-24T01:03:24.624Z,648.29
2022-12-24T01:03:34.693Z,648.81
2022-12-24T01:03:44.616Z,648.44
2022-12-24T01:03:54.578Z,648.42
2022-12-24T01:04:04.548Z,648.75
2022-12-24T01:04:14.515Z,648.62
2022-12-24T01:04:24.525Z,649.28
2022-12-24T01:04:34.558Z,649.17
2022-12-24T01:04:44.528Z,648.59
2022-12-24T01:04:54.524Z,648.63
2022-12-24T01:05:04.549Z,648.28
2022-12-24T01:05:14.537Z,648.00
2022-12-24T01:05:24.526Z,648.73
2022-12-24T01:05:34.530Z,647.94
2022-12-24T01:05:44.534Z,648.32
2022-12-24T01:05:54.536Z,648.34
2022-12-24T01:06:04.547Z,648.04
2022-12-24T01:06:14.532Z,647.71
2022-12-24T01:06:24.535Z,647.98
2022-12-24T01:06:34.537Z,648.13
2022-12-24T01:06:44.610Z,648.66
2022-12-24T01:06:54.537Z,648.44
2022-12-24T01:07:04.543Z,648.06
2022-12-24T01:07:14.543Z,648.40
2022-12-24T01:07:24.555Z,648.82
2022-12-24T01:07:34.541Z,648.32
2022-12-24T01:07:44.792Z,648.17
2022-12-24T01:07:54.548Z,647.43
2022-12-24T01:08:04.541Z,647.99
2022-12-24T01:08:14.541Z,647.71
2022-12-24T01:08:24.559Z,647.29
2022-12-24T01:08:34.545Z,647.58
2022-12-24T01:08:44.555Z,647.94
2022-12-24T01:08:54.563Z,648.61
2022-12-24T01:09:04.549Z,647.76
2022-12-24T01:09:14.547Z,647.73
2022-12-24T01:09:24.568Z,647.69
2022-12-24T01:09:34.559Z,647.61
2022-12-24T01:09:44.547Z,647.39
2022-12-24T01:09:54.563Z,647.19
2022-12-24T01:10:04.557Z,646.93
2022-12-24T01:10:14.584Z,647.38
2022-12-24T01:10:24.577Z,647.22
2022-12-24T01:10:34.552Z,649.04
2022-12-24T01:10:44.558Z,648.47
2022-12-24T01:10:54.574Z,648.58
2022-12-24T01:11:04.552Z,648.07
2022-12-24T01:11:14.553Z,647.66
2022-12-24T01:11:24.554Z,649.19
2022-12-24T01:11:34.557Z,649.59
2022-12-24T01:11:44.564Z,650.26
2022-12-24T01:11:54.562Z,648.10
2022-12-24T01:12:04.562Z,647.26
2022-12-24T01:12:14.575Z,647.15
2022-12-24T01:12:24.565Z,647.50
2022-12-24T01:12:34.567Z,646.92
2022-12-24T01:12:44.574Z,647.27
2022-12-24T01:12:54.571Z,647.31
2022-12-24T01:13:04.565Z,647.17
2022-12-24T01:13:14.559Z,647.44
2022-12-24T01:13:24.568Z,646.99
2022-12-24T01:13:34.562Z,646.84
2022-12-24T01:13:44.572Z,647.13
2022-12-24T01:13:54.586Z,647.06
2022-12-24T01:14:04.570Z,646.23
2022-12-24T01:14:14.567Z,646.91
2022-12-24T01:14:24.573Z,647.34
2022-12-24T01:14:34.576Z,646.91
2022-12-24T01:14:44.580Z,646.62
2022-12-24T01:14:54.592Z,646.30
2022-12-24T01:15:04.578Z,646.45
2022-12-24T01:15:14.572Z,646.29
2022-12-24T01:15:24.583Z,646.04
2022-12-24T01:15:34.625Z,646.12
2022-12-24T01:15:44.628Z,646.80
2022-12-24T01:15:54.652Z,647.93
2022-12-24T01:16:04.658Z,646.56
2022-12-24T01:16:14.609Z,646.21
2022-12-24T01:16:24.625Z,646.41
2022-12-24T01:16:34.706Z,646.22
2022-12-24T01:16:44.579Z,645.92
2022-12-24T01:16:54.586Z,646.31
2022-12-24T01:17:04.577Z,646.69
2022-12-24T01:17:14.594Z,646.05
2022-12-24T01:17:24.579Z,645.89
2022-12-24T01:17:34.576Z,646.10
2022-12-24T01:17:44.583Z,645.65
2022-12-24T01:17:54.588Z,645.86
2022-12-24T01:18:04.602Z,645.76
2022-12-24T01:18:14.585Z,645.45
2022-12-24T01:18:24.605Z,645.84
2022-12-24T01:18:34.588Z,645.87
2022-12-24T01:18:44.584Z,645.48
2022-12-24T01:18:54.613Z,645.43
2022-12-24T01:19:04.586Z,645.90
2022-12-24T01:19:14.588Z,645.91
2022-12-24T01:19:24.607Z,645.98
2022-12-24T01:19:34.600Z,645.92
2022-12-24T01:19:44.605Z,646.32
2022-12-24T01:19:54.617Z,645.86
2022-12-24T01:20:04.592Z,645.53
2022-12-24T01:20:14.605Z,645.75
2022-12-24T01:20:24.600Z,644.99
2022-12-24T01:20:34.586Z,645.88
2022-12-24T01:20:44.606Z,646.18
2022-12-24T01:20:54.629Z,646.07
2022-12-24T01:21:04.593Z,644.99
2022-12-24T01:21:14.592Z,645.46
2022-12-24T01:21:24.594Z,645.61
2022-12-24T01:21:34.603Z,645.71
2022-12-24T01:21:44.635Z,645.45
2022-12-24T01:21:54.596Z,645.11
2022-12-24T01:22:04.597Z,645.01
2022-12-24T01:22:14.607Z,645.10
2022-12-24T01:22:24.595Z,645.33
2022-12-24T01:22:34.592Z,645.28
2022-12-24T01:22:44.623Z,646.46
2022-12-24T01:22:54.599Z,645.50
2022-12-24T01:23:04.604Z,645.66
2022-12-24T01:23:14.599Z,645.05
2022-12-24T01:23:24.623Z,645.07
2022-12-24T01:23:34.598Z,645.01
2022-12-24T01:23:44.619Z,644.98
2022-12-24T01:23:54.607Z,644.79
2022-12-24T01:24:04.608Z,644.25
2022-12-24T01:24:14.611Z,644.54
2022-12-24T01:24:24.604Z,644.71
2022-12-24T01:24:34.615Z,644.60
2022-12-24T01:24:44.617Z,644.50
2022-12-24T01:24:54.626Z,644.07
2022-12-24T01:25:04.628Z,644.49
2022-12-24T01:25:14.613Z,644.40
2022-12-24T01:25:24.610Z,644.46
2022-12-24T01:25:34.617Z,644.12
2022-12-24T01:25:44.623Z,644.16
2022-12-24T01:25:54.621Z,644.63
2022-12-24T01:26:04.614Z,645.24
2022-12-24T01:26:14.623Z,645.02
2022-12-24T01:26:24.618Z,644.73
2022-12-24T01:26:34.616Z,644.20
2022-12-24T01:26:44.639Z,643.81
2022-12-24T01:26:54.617Z,643.65
2022-12-24T01:27:04.616Z,643.61
2022-12-24T01:27:14.623Z,643.15
2022-12-24T01:27:24.643Z,642.64
2022-12-24T01:27:34.623Z,643.53
2022-12-24T01:27:44.662Z,644.12
2022-12-24T01:27:54.626Z,643.91
2022-12-24T01:28:04.624Z,643.36
2022-12-24T01:28:14.656Z,643.73
2022-12-24T01:28:24.626Z,643.07
2022-12-24T01:28:34.629Z,642.95
2022-12-24T01:28:44.632Z,642.77
2022-12-24T01:28:54.660Z,643.25
2022-12-24T01:29:04.632Z,644.96
2022-12-24T01:29:14.633Z,643.41
2022-12-24T01:29:24.629Z,643.09
2022-12-24T01:29:34.657Z,643.78
2022-12-24T01:29:44.637Z,642.33
2022-12-24T01:29:54.627Z,643.23
2022-12-24T01:30:04.643Z,642.94
2022-12-24T01:30:14.658Z,644.05
2022-12-24T01:30:24.635Z,644.34
2022-12-24T01:30:34.634Z,643.28
2022-12-24T01:30:44.683Z,643.06
2022-12-24T01:30:54.682Z,643.07
2022-12-24T01:31:04.689Z,643.17
2022-12-24T01:31:14.729Z,642.97
2022-12-24T01:31:24.749Z,642.89
2022-12-24T01:31:34.664Z,643.32
2022-12-24T01:31:44.709Z,643.82
2022-12-24T01:31:54.653Z,643.79
2022-12-24T01:32:04.640Z,643.30
2022-12-24T01:32:14.649Z,643.61
2022-12-24T01:32:24.649Z,643.12
2022-12-24T01:32:34.645Z,644.84
2022-12-24T01:32:44.670Z,643.22
2022-12-24T01:32:54.645Z,643.02
2022-12-24T01:33:04.657Z,643.40
2022-12-24T01:33:14.653Z,642.18
2022-12-24T01:33:24.656Z,642.45
2022-12-24T01:33:34.667Z,643.41
2022-12-24T01:33:44.649Z,643.99
2022-12-24T01:33:54.663Z,643.95
2022-12-24T01:34:04.675Z,642.92
2022-12-24T01:34:14.665Z,642.61
2022-12-24T01:34:24.655Z,641.90
2022-12-24T01:34:34.655Z,641.57
2022-12-24T01:34:44.654Z,642.36
2022-12-24T01:34:54.648Z,642.77
2022-12-24T01:35:04.682Z,642.02
2022-12-24T01:35:14.650Z,644.41
2022-12-24T01:35:24.658Z,642.82
2022-12-24T01:35:34.667Z,643.28
2022-12-24T01:35:44.680Z,641.97
2022-12-24T01:35:54.661Z,642.91
2022-12-24T01:36:04.671Z,641.86
2022-12-24T01:36:14.667Z,643.75
2022-12-24T01:36:24.656Z,642.02
2022-12-24T01:36:34.658Z,643.19
2022-12-24T01:36:44.689Z,642.76
2022-12-24T01:36:54.646Z,642.33
2022-12-24T01:37:04.665Z,643.84
2022-12-24T01:37:14.717Z,642.88
2022-12-24T01:37:24.669Z,641.67
2022-12-24T01:37:34.679Z,642.59
2022-12-24T01:37:44.668Z,642.99
2022-12-24T01:37:54.666Z,643.58
2022-12-24T01:38:04.676Z,642.11
2022-12-24T01:38:14.696Z,641.89
2022-12-24T01:38:24.671Z,643.40
2022-12-24T01:38:34.681Z,643.66
2022-12-24T01:38:44.678Z,642.87
2022-12-24T01:38:54.681Z,642.56
2022-12-24T01:39:04.667Z,642.24
2022-12-24T01:39:14.676Z,642.71
2022-12-24T01:39:24.677Z,643.20
2022-12-24T01:39:34.749Z,642.73
2022-12-24T01:39:44.690Z,641.73
2022-12-24T01:39:54.669Z,641.97
2022-12-24T01:40:04.692Z,641.91
2022-12-24T01:40:14.674Z,642.23
2022-12-24T01:40:24.671Z,642.00
2022-12-24T01:40:34.707Z,641.40
2022-12-24T01:40:44.708Z,641.01
2022-12-24T01:40:54.672Z,641.54
2022-12-24T01:41:04.670Z,642.13
2022-12-24T01:41:14.679Z,642.02
2022-12-24T01:41:24.681Z,642.96
2022-12-24T01:41:34.682Z,641.98
2022-12-24T01:41:44.707Z,642.69
2022-12-24T01:41:54.680Z,642.90
2022-12-24T01:42:04.708Z,642.79
2022-12-24T01:42:14.681Z,642.37
2022-12-24T01:42:24.680Z,642.47
2022-12-24T01:42:34.688Z,644.17
2022-12-24T01:42:44.685Z,643.97
2022-12-24T01:42:54.682Z,642.07
2022-12-24T01:43:04.707Z,641.29
2022-12-24T01:43:14.704Z,642.19
2022-12-24T01:43:24.685Z,642.93
2022-12-24T01:43:34.699Z,642.25
2022-12-24T01:43:44.685Z,642.19
2022-12-24T01:43:54.689Z,641.77
2022-12-24T01:44:04.698Z,641.65
2022-12-24T01:44:14.687Z,642.92
2022-12-24T01:44:29.696Z,642.50
2022-12-24T01:44:37.203Z,641.93
2022-12-24T01:44:44.704Z,641.49
2022-12-24T01:44:54.693Z,641.52
2022-12-24T01:45:04.695Z,641.61
2022-12-24T01:45:14.694Z,641.79
2022-12-24T01:45:24.690Z,642.64
2022-12-24T01:45:34.699Z,641.88
2022-12-24T01:45:44.692Z,642.21
2022-12-24T01:45:54.758Z,641.46
2022-12-24T01:46:04.733Z,642.17
2022-12-24T01:46:14.719Z,641.86
2022-12-24T01:46:24.723Z,642.26
2022-12-24T01:46:34.785Z,642.28
2022-12-24T01:46:44.830Z,641.82
2022-12-24T01:46:54.755Z,641.29
2022-12-24T01:47:04.732Z,641.15
2022-12-24T01:47:14.696Z,642.35
2022-12-24T01:47:24.723Z,642.07
2022-12-24T01:47:34.700Z,641.97
2022-12-24T01:47:44.701Z,642.32
2022-12-24T01:47:54.704Z,642.51
2022-12-24T01:48:04.715Z,642.86
2022-12-24T01:48:14.705Z,642.28
2022-12-24T01:48:24.706Z,641.93
2022-12-24T01:48:34.719Z,642.11
2022-12-24T01:48:44.730Z,641.64
2022-12-24T01:48:54.711Z,641.77
2022-12-24T01:49:04.721Z,641.55
2022-12-24T01:49:14.707Z,641.53
2022-12-24T01:49:24.713Z,642.01
2022-12-24T01:49:34.867Z,641.84
2022-12-24T01:49:44.711Z,643.17
2022-12-24T01:49:54.727Z,642.10
2022-12-24T01:50:04.727Z,641.94
2022-12-24T01:50:14.711Z,641.43
2022-12-24T01:50:24.750Z,641.25
2022-12-24T01:50:34.714Z,641.60
2022-12-24T01:50:44.718Z,642.08
2022-12-24T01:50:54.728Z,641.04
2022-12-24T01:51:04.727Z,640.74
2022-12-24T01:51:14.715Z,640.84
2022-12-24T01:51:24.735Z,641.08
2022-12-24T01:51:34.720Z,641.24
2022-12-24T01:51:44.728Z,641.59
2022-12-24T01:51:54.735Z,641.21
2022-12-24T01:52:04.721Z,640.87
2022-12-24T01:52:14.727Z,640.63
2022-12-24T01:52:24.748Z,640.95
2022-12-24T01:52:34.734Z,640.75
2022-12-24T01:52:44.735Z,641.43
2022-12-24T01:52:54.739Z,641.18
2022-12-24T01:53:04.731Z,641.00
2022-12-24T01:53:14.737Z,641.05
2022-12-24T01:53:24.725Z,640.69
2022-12-24T01:53:34.746Z,641.27
2022-12-24T01:53:44.742Z,641.33
2022-12-24T01:53:54.727Z,641.25
2022-12-24T01:54:04.732Z,641.21
2022-12-24T01:54:14.737Z,641.40
2022-12-24T01:54:24.740Z,641.04
2022-12-24T01:54:34.758Z,641.00
2022-12-24T01:54:44.737Z,640.93
2022-12-24T01:54:54.756Z,641.13
2022-12-24T01:55:04.738Z,640.99
2022-12-24T01:55:14.766Z,641.44
2022-12-24T01:55:24.747Z,641.45
2022-12-24T01:55:34.748Z,641.14
2022-12-24T01:55:44.736Z,640.96
2022-12-24T01:55:54.737Z,640.98
2022-12-24T01:56:04.737Z,641.12
2022-12-24T01:56:14.749Z,641.03
2022-12-24T01:56:24.756Z,641.09
2022-12-24T01:56:34.733Z,640.91
2022-12-24T01:56:44.735Z,641.41
2022-12-24T01:56:54.753Z,641.21
2022-12-24T01:57:04.746Z,640.58
2022-12-24T01:57:14.746Z,641.54
2022-12-24T01:57:24.740Z,641.56
2022-12-24T01:57:34.747Z,641.09
2022-12-24T01:57:44.738Z,641.23
2022-12-24T01:57:54.757Z,641.07
2022-12-24T01:58:04.739Z,641.29
2022-12-24T01:58:14.757Z,641.19
2022-12-24T01:58:24.749Z,640.51
2022-12-24T01:58:34.764Z,640.72
2022-12-24T01:58:45.160Z,640.37
2022-12-24T01:58:54.764Z,640.17
2022-12-24T01:59:04.752Z,640.09
2022-12-24T01:59:14.753Z,639.53
2022-12-24T01:59:24.778Z,639.76
2022-12-24T01:59:34.750Z,640.86
2022-12-24T01:59:44.762Z,639.93
2022-12-24T01:59:54.758Z,640.03
2022-12-24T02:00:04.754Z,640.39
2022-12-24T02:00:14.753Z,640.64
2022-12-24T02:00:24.782Z,640.79
2022-12-24T02:00:34.752Z,640.24
2022-12-24T02:00:44.754Z,640.20
2022-12-24T02:00:54.789Z,639.76
2022-12-24T02:01:04.786Z,640.77
2022-12-24T02:01:14.903Z,639.95
2022-12-24T02:01:24.915Z,640.17
2022-12-24T02:01:34.902Z,640.67
2022-12-24T02:01:44.785Z,639.98
2022-12-24T02:01:54.905Z,639.35
2022-12-24T02:02:04.912Z,638.82
2022-12-24T02:02:14.844Z,639.08
2022-12-24T02:02:24.993Z,639.82
2022-12-24T02:02:34.990Z,640.30
2022-12-24T02:02:44.847Z,639.78
2022-12-24T02:02:54.923Z,639.29
2022-12-24T02:03:04.850Z,639.02
2022-12-24T02:03:14.815Z,638.97
2022-12-24T02:03:24.866Z,638.83
2022-12-24T02:03:34.790Z,639.24
2022-12-24T02:03:44.888Z,639.89
2022-12-24T02:03:54.895Z,639.22
2022-12-24T02:04:04.775Z,639.45
2022-12-24T02:04:14.773Z,638.70
2022-12-24T02:04:24.777Z,638.86
2022-12-24T02:04:34.773Z,640.36
2022-12-24T02:04:44.782Z,639.35